Time;durP1;ratioP1;P1;durP2;ratioP2;P2;SDS_P1;SDS_P2;PMS_P1;PMS_P2;Temp;Humidity;BMP_temperature;BMP_pressure;BME280_temperature;BME280_humidity;BME280_pressure;Samples;Min_cycle;Max_cycle;Signal;HPM_P1;HPM_P2
2023/09/27 00:01:02;;;;;;;20.67;18.57;;;14.30;21.70;;;;;;5115366;28;20051;-83
2023/09/27 00:03:28;;;;;;;20.17;18.17;;;14.30;22.60;;;;;;5098182;28;20043;-82
2023/09/27 00:05:54;;;;;;;20.17;17.30;;;14.30;23.70;;;;;;5115646;28;20047;-83
2023/09/27 00:08:20;;;;;;;21.23;18.95;;;14.30;24.10;;;;;;5098328;28;20366;-83
2023/09/27 00:10:46;;;;;;;21.10;18.77;;;14.30;24.70;;;;;;5098710;28;20054;-83
2023/09/27 00:13:11;;;;;;;22.15;20.15;;;14.30;25.40;;;;;;5115544;28;20125;-82
2023/09/27 00:15:37;;;;;;;21.87;19.67;;;14.30;26.40;;;;;;5115064;28;20051;-83
2023/09/27 00:18:04;;;;;;;20.37;18.20;;;14.30;27.00;;;;;;5094526;28;20086;-83
2023/09/27 00:20:30;;;;;;;21.25;19.08;;;14.30;27.00;;;;;;5111768;28;20781;-83
2023/09/27 00:22:56;;;;;;;21.00;18.80;;;14.30;27.70;;;;;;5078104;28;20044;-83
2023/09/27 00:25:21;;;;;;;22.13;19.58;;;14.30;27.90;;;;;;5094657;28;20128;-83
2023/09/27 00:27:47;;;;;;;21.73;19.53;;;14.20;28.30;;;;;;5095468;28;20100;-83
2023/09/27 00:30:16;;;;;;;20.67;18.57;;;14.20;28.80;;;;;;5112655;28;20505;-83
2023/09/27 00:32:44;;;;;;;23.27;20.73;;;14.20;29.70;;;;;;5098904;28;20047;-82
2023/09/27 00:35:14;;;;;;;24.25;21.08;;;14.20;30.60;;;;;;5082646;28;20127;-83
2023/09/27 00:37:40;;;;;;;22.77;20.50;;;14.20;31.10;;;;;;5115166;28;20126;-83
2023/09/27 00:40:10;;;;;;;23.20;20.90;;;14.20;32.00;;;;;;5115661;28;20467;-83
2023/09/27 00:42:36;;;;;;;27.05;24.27;;;14.30;31.70;;;;;;5116388;28;20051;-83
2023/09/27 00:45:03;;;;;;;24.98;22.33;;;14.30;32.80;;;;;;5115572;28;20058;-83
2023/09/27 00:47:30;;;;;;;26.67;23.92;;;14.30;32.90;;;;;;5114935;28;20051;-83
2023/09/27 00:49:55;;;;;;;26.02;23.40;;;14.40;33.40;;;;;;5115491;28;20098;-83
2023/09/27 00:52:22;;;;;;;26.87;24.40;;;14.30;33.80;;;;;;5081598;28;20079;-83
2023/09/27 00:54:47;;;;;;;27.95;24.95;;;14.40;33.60;;;;;;5081240;28;20052;-83
2023/09/27 00:57:13;;;;;;;26.02;23.45;;;14.40;33.50;;;;;;5081129;28;20039;-83
2023/09/27 00:59:39;;;;;;;27.48;24.70;;;14.40;33.00;;;;;;5098027;28;20079;-83
2023/09/27 01:02:06;;;;;;;26.63;24.02;;;14.40;33.30;;;;;;5115423;28;20130;-83
2023/09/27 01:04:32;;;;;;;26.80;24.25;;;14.50;33.50;;;;;;5097742;28;20051;-83
2023/09/27 01:06:59;;;;;;;27.13;24.27;;;14.40;33.70;;;;;;5098057;28;20075;-84
2023/09/27 01:09:24;;;;;;;;;;;14.50;33.80;;;;;;5115190;28;20042;-83
2023/09/27 01:11:50;;;;;;;28.83;25.88;;;14.40;34.70;;;;;;5097722;28;19919;-82
2023/09/27 01:14:16;;;;;;;28.10;25.07;;;14.40;33.00;;;;;;5114927;28;20046;-83
2023/09/27 01:16:42;;;;;;;25.60;23.00;;;14.40;33.10;;;;;;5097590;28;20398;-83
2023/09/27 01:19:08;;;;;;;25.17;22.57;;;14.30;32.70;;;;;;5080535;28;20131;-83
2023/09/27 01:21:33;;;;;;;27.27;24.67;;;14.30;32.00;;;;;;5080850;28;20289;-82
2023/09/27 01:23:59;;;;;;;26.20;23.43;;;14.20;32.70;;;;;;5080954;28;20520;-83
2023/09/27 01:26:26;;;;;;;26.10;23.43;;;14.20;33.40;;;;;;5097572;28;20055;-84
2023/09/27 01:28:52;;;;;;;27.08;24.35;;;14.20;34.70;;;;;;5097367;28;20105;-83
2023/09/27 01:31:18;;;;;;;25.92;23.45;;;14.20;35.40;;;;;;5114839;28;20052;-83
2023/09/27 01:33:44;;;;;;;25.65;23.15;;;14.20;36.10;;;;;;5114329;28;20040;-84
2023/09/27 01:36:11;;;;;;;26.17;23.53;;;14.20;36.00;;;;;;5114492;28;20052;-83
2023/09/27 01:38:38;;;;;;;25.80;23.17;;;14.10;35.00;;;;;;5113934;28;20048;-84
2023/09/27 01:41:04;;;;;;;23.52;21.23;;;14.10;34.70;;;;;;5115168;28;20549;-83
2023/09/27 01:43:30;;;;;;;;;;;14.10;34.50;;;;;;5114055;28;20044;-87
2023/09/27 01:45:58;;;;;;;27.95;22.88;;;14.00;32.50;;;;;;5097304;28;19927;-82
2023/09/27 01:48:24;;;;;;;23.88;21.55;;;14.00;34.10;;;;;;5097265;28;20043;-83
2023/09/27 01:50:50;;;;;;;28.30;24.53;;;14.00;33.90;;;;;;5113970;28;20043;-83
2023/09/27 01:53:15;;;;;;;25.80;23.33;;;13.90;33.40;;;;;;5097213;28;20565;-83
2023/09/27 01:55:41;;;;;;;26.40;22.80;;;13.90;34.50;;;;;;5096968;28;20297;-83
2023/09/27 01:58:07;;;;;;;26.60;24.00;;;13.90;35.20;;;;;;5096383;28;20042;-82
2023/09/27 02:00:32;;;;;;;24.70;22.30;;;13.80;35.80;;;;;;5096731;28;20074;-88
2023/09/27 02:03:00;;;;;;;26.77;23.93;;;13.80;35.70;;;;;;5097061;28;20054;-83
2023/09/27 02:05:28;;;;;;;26.88;23.92;;;13.80;36.00;;;;;;5097061;28;20090;-82
2023/09/27 02:07:54;;;;;;;25.27;22.52;;;13.80;36.50;;;;;;5079757;28;20051;-83
2023/09/27 02:10:20;;;;;;;23.75;21.45;;;13.80;36.40;;;;;;5097251;28;20040;-83
2023/09/27 02:12:46;;;;;;;24.08;21.67;;;13.70;36.50;;;;;;5113666;28;20108;-82
2023/09/27 02:15:14;;;;;;;25.27;22.70;;;13.70;35.50;;;;;;5113919;28;20055;-83
2023/09/27 02:17:40;;;;;;;25.30;22.85;;;13.70;36.20;;;;;;5079808;27;20460;-84
2023/09/27 02:20:09;;;;;;;25.33;22.83;;;13.60;37.50;;;;;;5117129;27;20147;-83
2023/09/27 02:22:36;;;;;;;24.90;22.50;;;13.60;38.20;;;;;;5116775;27;20061;-88
2023/09/27 02:25:02;;;;;;;25.65;22.95;;;13.60;38.50;;;;;;5117112;27;20047;-83
2023/09/27 02:27:28;;;;;;;24.77;22.52;;;13.50;37.70;;;;;;5099627;27;20039;-82
2023/09/27 02:29:54;;;;;;;26.33;23.75;;;13.50;37.10;;;;;;5119948;27;20047;-83
2023/09/27 02:32:19;;;;;;;23.80;21.50;;;13.50;37.50;;;;;;5099909;27;20043;-83
2023/09/27 02:34:46;;;;;;;27.23;24.50;;;13.50;37.90;;;;;;5116502;27;20055;-83
2023/09/27 02:37:15;;;;;;;26.05;23.42;;;13.40;39.00;;;;;;5099884;27;20046;-83
2023/09/27 02:39:44;;;;;;;25.25;22.80;;;13.50;40.30;;;;;;5116431;27;20096;-83
2023/09/27 02:42:13;;;;;;;25.90;23.25;;;13.40;40.80;;;;;;5099625;27;20054;-83
2023/09/27 02:44:39;;;;;;;25.60;23.05;;;13.40;40.20;;;;;;5082647;27;20047;-85
2023/09/27 02:47:07;;;;;;;27.15;24.35;;;13.40;40.00;;;;;;5099706;27;20120;-83
2023/09/27 02:49:36;;;;;;;27.23;24.60;;;13.40;40.30;;;;;;5116568;27;20130;-83
2023/09/27 02:52:02;;;;;;;27.58;24.60;;;13.40;40.00;;;;;;5116179;27;20488;-82
2023/09/27 02:54:28;;;;;;;27.75;24.83;;;13.30;40.10;;;;;;5098736;27;20374;-83
2023/09/27 02:56:54;;;;;;;27.88;24.98;;;13.30;40.10;;;;;;5099102;27;20035;-83
2023/09/27 02:59:19;;;;;;;29.38;26.45;;;13.30;41.30;;;;;;5108214;27;20043;-83
2023/09/27 03:01:46;;;;;;;28.80;25.98;;;13.30;42.10;;;;;;5130896;27;20400;-83
2023/09/27 03:04:15;;;;;;;27.38;24.63;;;13.30;42.20;;;;;;5136936;27;20043;-83
2023/09/27 03:06:41;;;;;;;27.73;25.02;;;13.20;42.10;;;;;;5119707;27;20046;-84
2023/09/27 03:09:08;;;;;;;26.02;23.42;;;13.30;43.00;;;;;;5102724;27;20489;-83
2023/09/27 03:11:35;;;;;;;27.80;25.10;;;13.20;42.20;;;;;;5136680;27;20489;-83
2023/09/27 03:14:01;;;;;;;27.85;25.10;;;13.20;42.70;;;;;;5102234;27;20399;-83
2023/09/27 03:16:26;;;;;;;28.02;25.00;;;13.20;42.40;;;;;;5119585;27;20118;-83
2023/09/27 03:18:54;;;;;;;27.13;24.43;;;13.20;42.50;;;;;;5154452;27;20481;-83
2023/09/27 03:21:23;;;;;;;26.48;23.67;;;13.10;43.30;;;;;;5119419;27;20371;-83
2023/09/27 03:23:49;;;;;;;29.17;26.17;;;13.10;42.70;;;;;;5102049;27;20057;-83
2023/09/27 03:26:15;;;;;;;31.67;28.37;;;13.10;43.30;;;;;;5119517;27;20130;-83
2023/09/27 03:28:40;;;;;;;26.77;24.17;;;13.10;45.00;;;;;;5134212;27;20031;-82
2023/09/27 03:31:06;;;;;;;26.90;24.37;;;13.10;45.90;;;;;;5134623;27;20039;-84
2023/09/27 03:33:32;;;;;;;27.27;24.50;;;13.10;45.40;;;;;;5099100;28;20059;-83
2023/09/27 03:36:01;;;;;;;28.60;25.80;;;13.10;45.00;;;;;;5098635;28;20039;-83
2023/09/27 03:38:27;;;;;;;29.38;26.20;;;13.10;45.00;;;;;;5098750;28;20304;-83
2023/09/27 03:40:53;;;;;;;27.53;24.93;;;13.00;45.20;;;;;;5065028;28;20039;-83
2023/09/27 03:43:18;;;;;;;30.20;27.10;;;13.00;44.20;;;;;;5098563;28;20051;-83
2023/09/27 03:45:45;;;;;;;30.67;27.40;;;13.00;44.60;;;;;;5098847;28;20046;-83
2023/09/27 03:48:10;;;;;;;32.08;28.20;;;13.00;45.80;;;;;;5081737;28;20062;-82
2023/09/27 03:50:36;;;;;;;30.00;26.67;;;13.00;46.00;;;;;;5098993;28;20051;-83
2023/09/27 03:53:04;;;;;;;29.77;26.73;;;13.00;46.00;;;;;;5098370;28;20104;-83
2023/09/27 03:55:29;;;;;;;27.35;24.77;;;12.90;46.30;;;;;;5115886;28;20065;-83
2023/09/27 03:57:55;;;;;;;28.23;25.43;;;13.00;46.10;;;;;;5098020;28;20481;-83
2023/09/27 04:00:21;;;;;;;28.27;25.47;;;12.90;45.90;;;;;;5093778;28;20397;-83
2023/09/27 04:02:47;;;;;;;27.45;24.77;;;12.90;46.20;;;;;;5115121;28;20052;-82
2023/09/27 04:05:15;;;;;;;29.17;26.13;;;12.90;46.60;;;;;;5082615;27;20477;-83
2023/09/27 04:07:41;;;;;;;27.23;24.45;;;12.90;47.30;;;;;;5119593;27;20051;-83
2023/09/27 04:10:08;;;;;;;30.20;27.15;;;12.80;48.40;;;;;;5101993;27;20047;-82
2023/09/27 04:12:34;;;;;;;27.52;24.58;;;12.80;48.40;;;;;;5102306;27;20047;-83
2023/09/27 04:15:00;;;;;;;29.35;26.35;;;12.80;48.80;;;;;;5119324;27;20039;-83
2023/09/27 04:17:26;;;;;;;27.20;24.53;;;12.80;49.40;;;;;;5102344;27;20043;-84
2023/09/27 04:19:55;;;;;;;27.90;24.95;;;12.80;49.40;;;;;;5118660;27;20303;-84
2023/09/27 04:22:21;;;;;;;29.17;26.13;;;12.70;49.20;;;;;;5119347;27;20073;-83
2023/09/27 04:24:47;;;;;;;29.37;26.17;;;12.80;49.10;;;;;;5102526;27;20051;-83
2023/09/27 04:27:12;;;;;;;30.10;26.90;;;12.70;49.20;;;;;;5085034;27;20473;-82
2023/09/27 04:29:38;;;;;;;27.77;25.00;;;12.70;50.10;;;;;;5114026;27;20434;-82
2023/09/27 04:32:04;;;;;;;27.90;25.10;;;12.70;50.50;;;;;;5101278;27;20035;-83
2023/09/27 04:34:30;;;;;;;30.40;27.30;;;12.70;50.00;;;;;;5102230;27;20043;-83
2023/09/27 04:36:56;;;;;;;31.93;28.67;;;12.70;50.20;;;;;;5101731;27;20046;-83
2023/09/27 04:39:26;;;;;;;29.95;26.88;;;12.70;51.20;;;;;;5119159;27;20079;-82
2023/09/27 04:41:53;;;;;;;28.25;25.38;;;12.60;52.20;;;;;;5102526;27;20477;-82
2023/09/27 04:44:19;;;;;;;29.15;26.10;;;12.60;52.20;;;;;;5102412;27;20047;-82
2023/09/27 04:46:44;;;;;;;28.70;25.73;;;12.70;52.70;;;;;;5137052;27;20088;-83
2023/09/27 04:49:10;;;;;;;30.07;26.97;;;12.70;52.90;;;;;;5118201;27;20492;-83
2023/09/27 04:51:36;;;;;;;28.43;25.40;;;12.60;51.50;;;;;;5118890;27;20043;-84
2023/09/27 04:54:03;;;;;;;30.07;26.83;;;12.70;50.40;;;;;;5118503;27;20039;-82
2023/09/27 04:56:30;;;;;;;28.35;25.45;;;12.60;49.90;;;;;;5101857;27;20476;-83
2023/09/27 04:59:01;;;;;;;27.02;24.38;;;12.60;48.90;;;;;;5117655;27;20043;-84
2023/09/27 05:01:27;;;;;;;26.92;24.15;;;12.60;48.50;;;;;;5101277;27;20122;-83
2023/09/27 05:03:53;;;;;;;29.77;26.73;;;12.50;48.60;;;;;;5101643;27;20062;-82
2023/09/27 05:06:19;;;;;;;27.30;24.63;;;12.50;48.20;;;;;;5101272;27;20039;-83
2023/09/27 05:08:45;;;;;;;27.23;24.52;;;12.40;48.00;;;;;;5101703;27;20138;-82
2023/09/27 05:11:11;;;;;;;26.77;23.97;;;12.40;48.20;;;;;;5101148;27;20133;-83
2023/09/27 05:13:36;;;;;;;28.03;25.07;;;12.40;48.30;;;;;;5101486;27;20034;-83
2023/09/27 05:16:03;;;;;;;27.27;24.50;;;12.40;49.10;;;;;;5084088;27;20145;-82
2023/09/27 05:18:29;;;;;;;31.55;28.17;;;12.40;50.00;;;;;;5079709;28;20134;-83
2023/09/27 05:20:54;;;;;;;30.42;27.33;;;12.40;50.50;;;;;;5097838;28;20087;-82
2023/09/27 05:23:20;;;;;;;31.87;28.57;;;12.50;51.60;;;;;;5080315;28;20071;-83
2023/09/27 05:25:47;;;;;;;32.17;28.80;;;12.50;52.30;;;;;;5114783;28;20047;-83
2023/09/27 05:28:12;;;;;;;;;;;12.50;53.00;;;;;;5114851;28;20052;-84
2023/09/27 05:30:38;;;;;;;36.45;32.58;;;12.50;61.60;;;;;;5131616;27;19941;-82
2023/09/27 05:33:07;;;;;;;41.80;37.17;;;12.60;52.50;;;;;;5113056;28;20051;-83
2023/09/27 05:35:33;;;;;;;39.20;35.17;;;12.60;54.60;;;;;;5081397;28;20090;-82
2023/09/27 05:37:59;;;;;;;36.83;33.03;;;12.70;58.20;;;;;;5097409;28;20087;-82
2023/09/27 05:40:25;;;;;;;35.65;31.95;;;12.80;59.70;;;;;;5114348;28;20051;-83
2023/09/27 05:42:50;;;;;;;38.63;34.63;;;12.90;60.80;;;;;;5097436;28;20543;-82
2023/09/27 05:45:16;;;;;;;46.03;33.90;;;12.90;61.10;;;;;;5097043;28;20285;-83
2023/09/27 05:47:42;;;;;;;37.27;33.07;;;13.00;62.10;;;;;;5097382;28;20449;-83
2023/09/27 05:50:11;;;;;;;36.83;33.17;;;13.00;61.80;;;;;;5080184;28;20052;-83
2023/09/27 05:52:36;;;;;;;36.55;32.75;;;13.10;62.10;;;;;;5097497;28;20051;-82
2023/09/27 05:55:07;;;;;;;34.77;31.17;;;13.10;62.20;;;;;;5097058;28;20394;-87
2023/09/27 05:57:33;;;;;;;37.22;33.30;;;13.10;61.90;;;;;;5080829;28;20090;-83
2023/09/27 06:00:00;;;;;;;;;;;13.20;61.80;;;;;;5081224;28;20059;-83
2023/09/27 06:02:32;;;;;;;37.88;33.88;;;13.20;65.00;;;;;;5096714;28;19923;-84
2023/09/27 06:04:59;;;;;;;33.50;30.17;;;13.20;61.80;;;;;;5114118;28;20104;-82
2023/09/27 06:07:27;;;;;;;38.97;35.00;;;13.20;63.50;;;;;;5096833;28;20129;-83
2023/09/27 06:09:53;;;;;;;36.40;32.63;;;13.20;65.10;;;;;;5079888;28;20075;-82
2023/09/27 06:12:18;;;;;;;35.37;31.53;;;13.30;66.20;;;;;;5096657;28;20087;-83
2023/09/27 06:14:44;;;;;;;35.33;31.73;;;13.30;66.90;;;;;;5096675;28;20093;-83
2023/09/27 06:17:15;;;;;;;35.80;31.47;;;13.30;67.70;;;;;;5109181;28;20036;-82
2023/09/27 06:19:41;;;;;;;35.88;32.28;;;13.30;67.10;;;;;;5096362;28;20048;-82
2023/09/27 06:22:07;;;;;;;35.83;32.20;;;13.40;66.20;;;;;;5113668;28;20195;-84
2023/09/27 06:24:33;;;;;;;32.80;29.47;;;13.40;65.40;;;;;;5079886;28;20054;-83
2023/09/27 06:26:59;;;;;;;35.20;31.60;;;13.40;65.00;;;;;;5096783;28;20035;-82
2023/09/27 06:29:25;;;;;;;36.42;32.60;;;13.40;65.00;;;;;;5113163;28;20284;-83
2023/09/27 06:31:51;;;;;;;35.20;31.55;;;13.50;65.00;;;;;;5130751;27;20388;-83
2023/09/27 06:34:17;;;;;;;34.03;30.63;;;13.40;64.90;;;;;;5133696;27;20510;-83
2023/09/27 06:36:43;;;;;;;33.13;29.63;;;13.50;65.60;;;;;;5116754;27;20401;-83
2023/09/27 06:39:13;;;;;;;35.10;31.13;;;13.50;65.40;;;;;;5133516;27;20050;-84
2023/09/27 06:41:41;;;;;;;32.35;28.98;;;13.50;65.40;;;;;;5116515;27;20039;-84
2023/09/27 06:44:07;;;;;;;31.75;28.65;;;13.60;65.00;;;;;;5116603;27;20035;-83
2023/09/27 06:46:36;;;;;;;34.67;31.25;;;13.60;64.40;;;;;;5119140;27;20056;-83
2023/09/27 06:49:04;;;;;;;34.15;30.63;;;13.60;63.50;;;;;;5113249;28;20100;-84
2023/09/27 06:51:31;;;;;;;34.97;31.27;;;13.70;63.60;;;;;;5095482;28;20359;-83
2023/09/27 06:53:57;;;;;;;34.95;31.38;;;13.80;64.70;;;;;;5096270;28;20043;-83
2023/09/27 06:56:23;;;;;;;36.80;33.03;;;13.90;64.80;;;;;;5095672;28;20048;-83
2023/09/27 06:58:51;;;;;;;37.17;33.42;;;14.10;65.70;;;;;;5112789;28;20058;-84
2023/09/27 07:01:18;;;;;;;38.78;34.85;;;14.30;65.60;;;;;;5112633;28;20096;-84
2023/09/27 07:03:43;;;;;;;38.65;34.55;;;14.60;63.70;;;;;;5095904;28;20092;-83
2023/09/27 07:06:09;;;;;;;35.87;32.23;;;15.00;60.50;;;;;;5096026;28;20036;-84
2023/09/27 07:08:35;;;;;;;35.33;31.58;;;15.30;56.30;;;;;;5115985;27;20043;-84
2023/09/27 07:11:09;;;;;;;33.85;30.50;;;15.40;53.50;;;;;;5112383;27;20044;-83
2023/09/27 07:13:37;;;;;;;34.00;30.38;;;15.70;49.30;;;;;;5112559;28;20042;-83
2023/09/27 07:16:18;;;;;;;35.42;31.70;;;16.10;45.90;;;;;;5096010;28;20044;-83
2023/09/27 07:18:44;;;;;;;32.22;29.15;;;16.40;37.00;;;;;;5112394;28;20127;-83
2023/09/27 07:21:11;;;;;;;34.03;30.80;;;16.70;33.60;;;;;;5096033;28;20052;-83
2023/09/27 07:23:37;;;;;;;33.13;29.85;;;17.00;26.20;;;;;;5094620;28;20478;-84
2023/09/27 07:26:04;;;;;;;29.70;26.80;;;17.00;22.30;;;;;;5094706;28;20386;-83
2023/09/27 07:28:31;;;;;;;30.15;27.10;;;16.80;21.60;;;;;;5078319;28;20497;-83
2023/09/27 07:30:58;;;;;;;29.73;26.83;;;16.60;22.20;;;;;;5095569;28;20481;-84
2023/09/27 07:33:24;;;;;;;;;;;16.40;24.50;;;;;;5095563;28;20477;-84
2023/09/27 07:35:52;;;;;;;31.15;28.15;;;16.30;22.20;;;;;;5112164;28;20357;-83
2023/09/27 07:38:18;;;;;;;28.25;25.48;;;16.20;30.30;;;;;;5078317;28;20040;-84
2023/09/27 07:40:48;;;;;;;31.10;27.77;;;16.10;29.70;;;;;;5094580;28;20431;-84
2023/09/27 07:43:15;;;;;;;31.67;28.27;;;16.10;29.70;;;;;;5112318;28;20053;-84
2023/09/27 07:45:43;;;;;;;33.08;29.60;;;16.00;31.70;;;;;;5094974;28;20050;-81
2023/09/27 07:48:09;;;;;;;34.10;30.73;;;16.00;34.80;;;;;;5130468;28;20082;-83
2023/09/27 07:50:37;;;;;;;34.72;31.10;;;15.80;37.50;;;;;;5115328;28;20035;-84
2023/09/27 07:53:06;;;;;;;31.85;28.80;;;15.80;39.10;;;;;;5132886;28;20051;-84
2023/09/27 07:55:48;;;;;;;34.17;30.85;;;15.80;40.10;;;;;;5132576;28;20423;-84
2023/09/27 07:58:14;;;;;;;31.63;28.52;;;15.70;40.80;;;;;;5132774;28;20077;-83
2023/09/27 08:00:44;;;;;;;33.85;30.35;;;15.70;41.60;;;;;;5098530;28;20056;-84
2023/09/27 08:03:10;;;;;;;32.15;28.95;;;15.70;42.50;;;;;;5115648;28;20134;-83
2023/09/27 08:05:43;;;;;;;34.35;31.00;;;15.70;44.60;;;;;;5109523;28;20051;-84
2023/09/27 08:08:16;;;;;;;34.90;31.48;;;15.70;46.00;;;;;;5079580;28;20049;-84
2023/09/27 08:10:47;;;;;;;34.42;30.80;;;15.70;47.30;;;;;;5095472;28;20067;-84
2023/09/27 08:13:14;;;;;;;33.30;29.85;;;15.70;48.70;;;;;;5112153;28;20054;-83
2023/09/27 08:15:47;;;;;;;34.42;30.90;;;15.70;49.70;;;;;;5094966;28;20667;-83
2023/09/27 08:18:14;;;;;;;34.13;30.55;;;15.80;49.90;;;;;;5097929;28;20049;-83
2023/09/27 08:20:40;;;;;;;34.55;31.13;;;15.90;50.00;;;;;;5098261;28;20475;-84
2023/09/27 08:23:06;;;;;;;33.97;30.60;;;16.10;50.30;;;;;;5098465;28;20039;-83
2023/09/27 08:25:32;;;;;;;32.22;29.00;;;16.40;50.50;;;;;;5081944;28;20077;-83
2023/09/27 08:27:57;;;;;;;34.30;30.70;;;16.70;47.40;;;;;;5098477;28;20058;-84
2023/09/27 08:30:23;;;;;;;32.72;29.20;;;16.90;41.90;;;;;;5115106;28;20196;-84
2023/09/27 08:32:49;;;;;;;30.52;27.50;;;17.10;38.40;;;;;;5115293;28;20043;-84
2023/09/27 08:35:16;;;;;;;30.27;26.90;;;17.30;33.90;;;;;;5098350;28;20108;-84
2023/09/27 08:37:42;;;;;;;30.27;27.35;;;17.40;31.50;;;;;;5114668;28;20084;-84
2023/09/27 08:40:17;;;;;;;29.30;25.98;;;17.50;29.20;;;;;;5115205;28;20110;-84
2023/09/27 08:42:43;;;;;;;27.88;25.10;;;17.70;29.40;;;;;;5114924;28;20047;-84
2023/09/27 08:45:13;;;;;;;28.70;25.77;;;17.80;27.30;;;;;;5099348;27;20055;-83
2023/09/27 08:47:44;;;;;;;27.02;23.50;;;17.90;25.60;;;;;;5118326;27;20039;-84
2023/09/27 08:50:18;;;;;;;27.30;24.13;;;18.00;25.20;;;;;;5118740;27;20437;-82
2023/09/27 08:52:50;;;;;;;28.60;23.65;;;18.10;20.10;;;;;;5137075;27;20085;-83
2023/09/27 08:55:18;;;;;;;28.65;25.67;;;18.10;18.70;;;;;;5139403;27;20054;-84
2023/09/27 08:57:48;;;;;;;28.75;25.63;;;18.20;18.50;;;;;;5121621;27;20046;-83
2023/09/27 09:00:22;;;;;;;26.85;24.05;;;18.20;17.80;;;;;;5138927;27;20049;-83
2023/09/27 09:02:56;;;;;;;27.23;24.10;;;18.30;18.10;;;;;;5138925;27;20523;-84
2023/09/27 09:05:24;;;;;;;26.13;23.33;;;18.40;16.00;;;;;;5128871;27;20070;-83
2023/09/27 09:07:50;;;;;;;27.25;23.98;;;18.40;20.10;;;;;;5137523;27;20043;-83
2023/09/27 09:10:17;;;;;;;25.05;22.55;;;18.50;19.30;;;;;;5121982;27;20062;-84
2023/09/27 09:12:44;;;;;;;27.13;24.42;;;18.50;17.30;;;;;;5138694;27;20042;-84
2023/09/27 09:15:14;;;;;;;25.35;22.75;;;18.60;18.20;;;;;;5139279;27;20047;-84
2023/09/27 09:17:48;;;;;;;23.10;20.70;;;18.60;15.60;;;;;;5121626;27;20480;-84
2023/09/27 09:20:23;;;;;;;23.60;21.20;;;18.70;9.90;;;;;;5138579;27;20101;-84
2023/09/27 09:22:53;;;;;;;23.17;20.70;;;18.90;16.10;;;;;;5121383;27;20078;-84
2023/09/27 09:25:21;;;;;;;20.30;18.30;;;19.00;11.20;;;;;;5121829;27;20070;-83
2023/09/27 09:28:09;;;;;;;21.08;18.45;;;19.10;10.50;;;;;;5121429;27;20047;-84
2023/09/27 09:30:39;;;;;;;22.98;20.58;;;19.10;4.90;;;;;;5121099;27;20074;-84
2023/09/27 09:33:22;;;;;;;21.30;18.65;;;19.20;5.60;;;;;;5117196;27;20409;-84
2023/09/27 09:35:48;;;;;;;24.15;19.10;;;19.20;5.40;;;;;;5120271;27;20092;-84
2023/09/27 09:38:34;;;;;;;20.45;17.70;;;19.20;7.80;;;;;;5117680;27;20127;-83
2023/09/27 09:41:01;;;;;;;19.10;16.80;;;19.30;7.20;;;;;;5101170;27;20051;-84
2023/09/27 09:43:37;;;;;;;20.77;18.58;;;19.30;3.90;;;;;;5084170;27;20047;-83
2023/09/27 09:46:06;;;;;;;19.88;17.50;;;19.40;10.60;;;;;;5101975;27;20043;-83
2023/09/27 09:48:33;;;;;;;19.60;16.85;;;19.60;3.70;;;;;;5102321;27;20509;-84
2023/09/27 09:51:06;;;;;;;19.15;16.85;;;19.70;1.00;;;;;;5100999;27;20093;-83
2023/09/27 09:53:36;;;;;;;19.65;16.50;;;19.70;1.00;;;;;;5117986;27;20047;-83
2023/09/27 09:56:03;;;;;;;21.20;19.02;;;19.70;1.00;;;;;;5085791;27;20054;-84
2023/09/27 09:58:35;;;;;;;19.10;15.98;;;19.70;1.00;;;;;;5118576;27;20053;-84
2023/09/27 10:01:03;;;;;;;19.98;15.23;;;19.70;1.00;;;;;;5120030;27;20050;-84
2023/09/27 10:03:33;;;;;;;19.48;16.90;;;19.70;1.00;;;;;;5117621;27;20043;-84
2023/09/27 10:06:04;;;;;;;20.10;18.10;;;19.70;1.00;;;;;;5156437;27;20039;-83
2023/09/27 10:08:38;;;;;;;20.35;18.10;;;19.70;2.20;;;;;;5121843;27;20043;-84
2023/09/27 10:11:05;;;;;;;20.42;18.27;;;19.90;5.80;;;;;;5105919;27;20046;-83
2023/09/27 10:13:39;;;;;;;21.63;18.58;;;20.10;1.00;;;;;;5157016;27;20110;-84
2023/09/27 10:16:08;;;;;;;20.42;16.63;;;20.20;1.00;;;;;;5137856;27;20038;-84
2023/09/27 10:18:38;;;;;;;19.50;15.80;;;20.30;1.00;;;;;;5137140;27;20138;-84
2023/09/27 10:21:10;;;;;;;24.52;15.85;;;20.30;1.00;;;;;;5137766;27;20138;-84
2023/09/27 10:23:58;;;;;;;14.85;13.18;;;20.30;1.00;;;;;;5120609;27;20051;-84
2023/09/27 10:26:26;;;;;;;15.02;13.52;;;20.30;1.00;;;;;;5121402;27;20472;-83
2023/09/27 10:29:04;;;;;;;13.75;12.35;;;20.30;1.00;;;;;;5120734;27;20054;-84
2023/09/27 10:31:38;;;;;;;13.77;12.48;;;20.40;1.00;;;;;;5137483;27;20081;-84
2023/09/27 10:34:30;;;;;;;16.02;12.65;;;20.50;1.00;;;;;;5121731;27;20105;-84
2023/09/27 10:37:00;;;;;;;17.50;12.05;;;20.60;1.00;;;;;;5137921;27;20062;-84
2023/09/27 10:39:26;;;;;;;13.20;11.82;;;20.60;1.00;;;;;;5138810;27;20090;-83
2023/09/27 10:41:53;;;;;;;13.13;11.07;;;20.60;1.00;;;;;;5122254;27;20086;-84
2023/09/27 10:44:29;;;;;;;10.82;9.60;;;20.60;1.00;;;;;;5137617;27;20081;-84
2023/09/27 10:46:55;;;;;;;12.02;10.20;;;20.70;1.00;;;;;;5119327;27;20080;-84
2023/09/27 10:49:30;;;;;;;;;;;20.80;1.00;;;;;;5137453;27;20050;-83
2023/09/27 10:51:56;;;;;;;11.45;9.40;;;20.80;1.00;;;;;;5119220;27;19923;-84
2023/09/27 10:54:23;;;;;;;11.27;9.82;;;20.90;1.00;;;;;;5137044;27;20057;-84
2023/09/27 10:56:53;;;;;;;11.77;10.57;;;20.90;1.00;;;;;;5136465;27;20049;-84
2023/09/27 10:59:28;;;;;;;15.27;12.70;;;21.10;1.00;;;;;;5136779;27;20489;-84
2023/09/27 11:02:04;;;;;;;13.05;11.73;;;21.10;1.00;;;;;;5114335;27;20435;-84
2023/09/27 11:04:32;;;;;;;15.37;11.23;;;21.20;1.00;;;;;;5130059;27;20415;-84
2023/09/27 11:06:58;;;;;;;16.20;11.93;;;21.30;1.00;;;;;;5119181;27;20081;-84
2023/09/27 11:09:24;;;;;;;16.80;12.32;;;21.40;1.00;;;;;;5136634;27;20119;-84
2023/09/27 11:11:54;;;;;;;16.05;12.00;;;21.50;1.00;;;;;;5103198;27;20050;-85
2023/09/27 11:14:26;;;;;;;13.65;11.32;;;21.60;1.00;;;;;;5121124;27;20038;-84
2023/09/27 11:16:52;;;;;;;12.77;11.48;;;21.70;1.00;;;;;;5120285;27;20072;-84
2023/09/27 11:19:31;;;;;;;14.13;12.65;;;21.70;1.00;;;;;;5120636;27;20055;-84
2023/09/27 11:21:57;;;;;;;13.50;12.20;;;21.70;1.00;;;;;;5136389;27;20046;-84
2023/09/27 11:24:23;;;;;;;13.93;12.52;;;21.60;1.00;;;;;;5136765;27;20050;-84
2023/09/27 11:26:48;;;;;;;12.60;11.32;;;21.50;1.00;;;;;;5119339;27;20046;-85
2023/09/27 11:29:14;;;;;;;13.02;11.73;;;21.50;1.00;;;;;;5119725;27;20366;-84
2023/09/27 11:31:40;;;;;;;14.40;13.00;;;21.40;1.00;;;;;;5099475;27;20041;-84
2023/09/27 11:34:19;;;;;;;14.13;11.73;;;21.30;1.00;;;;;;5118902;27;20047;-84
2023/09/27 11:36:53;;;;;;;13.55;11.52;;;21.40;1.00;;;;;;5115724;28;20046;-84
2023/09/27 11:39:27;;;;;;;16.55;11.38;;;21.30;1.00;;;;;;5098745;28;20051;-84
2023/09/27 11:41:58;;;;;;;14.05;11.60;;;21.30;1.00;;;;;;5098458;28;20039;-84
2023/09/27 11:44:25;;;;;;;19.70;11.02;;;21.20;1.00;;;;;;5098946;28;20082;-84
2023/09/27 11:47:02;;;;;;;12.30;11.10;;;21.30;1.00;;;;;;5098453;28;20043;-85
2023/09/27 11:49:28;;;;;;;13.45;12.10;;;21.40;1.00;;;;;;5115772;28;20051;-85
2023/09/27 11:51:53;;;;;;;14.63;10.80;;;21.30;1.00;;;;;;5115189;28;20081;-84
2023/09/27 11:54:19;;;;;;;11.73;10.50;;;21.30;1.00;;;;;;5098831;28;20047;-84
2023/09/27 11:56:45;;;;;;;13.05;11.60;;;21.20;1.00;;;;;;5115599;28;20542;-84
2023/09/27 11:59:10;;;;;;;12.98;11.68;;;21.10;1.00;;;;;;5081402;28;20050;-84
2023/09/27 12:01:37;;;;;;;14.40;11.70;;;21.00;1.00;;;;;;5098582;28;20070;-84
2023/09/27 12:04:03;;;;;;;;;;;21.00;1.00;;;;;;5116086;28;20130;-84
2023/09/27 12:06:29;;;;;;;12.50;11.30;;;20.90;1.00;;;;;;5114646;28;20044;-84
2023/09/27 12:08:55;;;;;;;11.27;10.10;;;20.80;1.00;;;;;;5098179;28;20054;-84
2023/09/27 12:11:22;;;;;;;13.32;10.93;;;20.80;1.00;;;;;;5115462;28;20172;-84
2023/09/27 12:13:48;;;;;;;12.38;11.18;;;20.80;1.00;;;;;;5115089;28;20400;-84
2023/09/27 12:16:15;;;;;;;13.68;12.27;;;20.90;1.00;;;;;;5098223;28;20039;-84
2023/09/27 12:18:42;;;;;;;13.57;12.18;;;20.90;1.00;;;;;;5098159;28;20512;-84
2023/09/27 12:21:08;;;;;;;;;;;21.10;1.00;;;;;;5098396;28;20142;-84
2023/09/27 12:23:33;;;;;;;13.05;11.75;;;21.10;1.00;;;;;;5081430;28;20006;-84
2023/09/27 12:25:59;;;;;;;12.55;11.27;;;21.20;1.00;;;;;;5065311;27;20073;-84
2023/09/27 12:28:25;;;;;;;12.52;11.23;;;21.30;1.00;;;;;;5137521;27;20071;-83
2023/09/27 12:30:51;;;;;;;11.98;10.77;;;21.40;1.00;;;;;;5119420;27;20493;-83
2023/09/27 12:33:17;;;;;;;11.23;10.02;;;21.40;1.00;;;;;;5101940;27;20081;-84
2023/09/27 12:35:46;;;;;;;10.32;9.32;;;21.40;1.00;;;;;;5136422;27;20039;-83